Latest Weather Observations for Coonamble

IDN60801

Issued at 11:02 pm EDT Friday 24 March 2017 (issued every 30 minutes, with the page automatically refreshed every 10 minutes)

About weather observations | Map of weather stations | Latest weather observations for NSW | Other Formats
Station Details ID: 051161 Name: COONAMBLE AIRPORT AWS Lat: -30.98 Lon: 148.38 Height: 181.3 m
Data from the previous 72 hours. | See also: Recent months at Coonamble
Date/Time
EDT
Temp
°C
App
Temp
°C
Dew
Point
°C
Rel
Hum
%
Delta-T
°C
Wind Press
QNH
hPa
Press
MSL
hPa
Rain since
9am
mm
Dir  Spd
km/h
Gust
km/h
Spd
kts
Gust
kts
24/11:00pm 22.5 20.0 17.0 71 3.4 E 26 35 14 19 1014.8 1013.9 0.0
24/10:30pm 22.6 20.5 17.1 71 3.4 E 24 33 13 18 1014.9 1014.0 0.0
24/10:00pm 22.9 19.6 17.1 70 3.6 E 30 41 16 22 1014.7 1013.8 0.0
24/09:30pm 23.4 19.9 17.4 69 3.7 E 32 48 17 26 1014.8 1013.9 0.0
24/09:23pm 23.5 20.4 17.5 69 3.8 E 30 48 16 26 1014.5 1013.6 0.0
24/09:00pm 23.8 21.6 17.8 69 3.8 ENE 26 33 14 18 1014.4 1013.5 0.0
24/08:30pm 24.4 22.3 18.1 68 4.0 ENE 26 33 14 18 1014.1 1013.2 0.0
24/08:00pm 25.2 23.2 18.4 66 4.3 ENE 26 39 14 21 1014.1 1013.2 0.0
24/07:30pm 25.9 24.0 18.6 64 4.7 ENE 26 37 14 20 1013.9 1013.0 0.0
24/07:00pm 27.0 25.2 18.8 60 5.3 E 26 35 14 19 1013.5 1012.6 0.0
24/06:30pm 27.9 27.0 19.1 58 5.7 E 22 30 12 16 1013.1 1012.2 0.0
24/06:00pm 28.8 27.9 19.1 55 6.3 E 22 30 12 16 1013.0 1012.1 0.0
24/05:30pm 29.2 28.1 18.6 52 6.9 E 22 30 12 16 1013.1 1012.2 0.0
24/05:00pm 29.7 29.2 19.1 53 6.9 E 20 30 11 16 1012.9 1012.0 0.0
24/04:30pm 29.9 29.5 19.3 53 6.9 ENE 20 30 11 16 1013.1 1012.2 0.0
24/04:00pm 28.8 27.8 18.9 55 6.4 ENE 22 30 12 16 1013.3 1012.4 0.0
24/03:30pm 30.1 29.2 19.8 54 6.8 ENE 24 33 13 18 1013.0 1012.1 0.0
24/03:00pm 29.8 29.2 20.4 57 6.3 E 24 37 13 20 1013.2 1012.3 0.0
24/02:30pm 30.0 29.3 20.3 56 6.4 ENE 24 35 13 19 1014.0 1013.1 0.0
24/02:00pm 29.8 29.2 20.6 57 6.1 E 24 35 13 19 1014.4 1013.5 0.0
24/01:30pm 29.4 28.7 20.3 58 6.0 ENE 24 32 13 17 1014.7 1013.8 0.0
24/01:00pm 29.3 29.2 21.5 63 5.3 ENE 24 30 13 16 1015.0 1014.1 0.0
24/12:30pm 30.3 32.8 21.7 60 5.8 ENE 11 17 6 9 1015.4 1014.6 0.0
24/12:00pm 29.4 31.4 20.8 60 5.7 NE 11 22 6 12 1015.7 1014.9 0.0
24/11:30am 28.4 29.7 20.9 64 5.0 NNE 15 20 8 11 1015.7 1014.9 0.0
24/11:00am 27.9 29.0 20.5 64 4.9 NE 15 20 8 11 1015.9 1015.1 0.0
24/10:30am 27.5 28.4 20.8 67 4.5 NNE 17 26 9 14 1015.8 1015.0 0.0
24/10:00am 26.9 27.6 21.2 71 3.8 NE 19 28 10 15 1015.7 1014.9 0.0
24/09:30am 26.4 27.3 21.6 75 3.2 NE 19 26 10 14 1015.6 1014.8 0.0
24/09:00am 25.3 26.3 21.0 77 2.8 NE 17 24 9 13 1015.6 1014.8 0.0
24/08:30am 24.2 24.8 21.1 83 2.1 NE 19 28 10 15 1015.3 1014.5 0.0
24/08:00am 22.9 24.7 21.2 90 1.1 ENE 13 17 7 9 1015.0 1014.1 0.0
24/07:30am 22.0 23.7 21.0 94 0.7 ENE 13 15 7 8 1014.9 1014.0 0.0
24/07:00am 22.3 23.9 20.8 91 1.0 ENE 13 17 7 9 1014.6 1013.7 0.0
24/06:30am 22.4 23.9 20.5 89 1.2 ENE 13 15 7 8 1014.2 1013.3 0.0
24/06:00am 22.7 24.0 20.2 86 1.6 ENE 13 17 7 9 1013.8 1012.9 0.0
24/05:30am 22.8 24.0 20.0 84 1.8 E 13 15 7 8 1013.7 1012.8 0.0
24/05:00am 22.7 23.9 19.9 84 1.8 ENE 13 19 7 10 1013.4 1012.5 0.0
24/04:30am 23.4 23.8 19.8 80 2.3 ENE 17 20 9 11 1013.0 1012.1 0.0
24/04:00am 23.4 24.2 19.8 80 2.3 E 15 19 8 10 1013.1 1012.2 0.0
24/03:30am 23.2 24.8 20.0 82 2.1 ESE 11 17 6 9 1013.3 1012.4 0.0
24/03:00am 23.2 24.5 20.2 83 2.0 E 13 19 7 10 1013.3 1012.4 0.0
24/02:30am 23.5 24.9 20.4 83 2.0 E 13 19 7 10 1013.4 1012.5 0.0
24/02:00am 22.9 23.9 20.2 85 1.8 ENE 15 17 8 9 1013.0 1012.1 0.0
24/01:30am 23.3 24.5 19.9 81 2.2 ENE 13 15 7 8 1013.3 1012.4 0.0
24/01:00am 23.9 24.9 19.4 76 2.9 ENE 13 17 7 9 1013.4 1012.5 0.0
24/12:30am 24.7 25.2 19.3 72 3.5 ENE 15 19 8 10 1013.3 1012.4 0.0
24/12:00am 25.2 25.8 18.6 67 4.2 ENE 13 17 7 9 1013.6 1012.7 0.0
 
Date/Time
EDT
Temp
°C
App
Temp
°C
Dew
Point
°C
Rel
Hum
%
Delta-T
°C
Wind Press
QNH
hPa
Press
MSL
hPa
Rain since
9am
mm
Dir  Spd
km/h
Gust
km/h
Spd
kts
Gust
kts
23/11:30pm 25.5 26.0 18.4 65 4.5 NNE 13 19 7 10 1013.4 1012.5 0.0
23/11:00pm 25.4 26.0 18.6 66 4.4 NE 13 17 7 9 1013.6 1012.7 0.0
23/10:30pm 25.0 25.5 18.4 66 4.2 ENE 13 15 7 8 1013.8 1012.9 0.0
23/10:00pm 27.2 27.2 18.2 58 5.8 NNE 15 20 8 11 1013.6 1012.7 0.0
23/09:30pm 27.3 27.3 18.0 56 5.9 NE 15 19 8 10 1013.1 1012.2 0.0
23/09:00pm 28.3 28.4 17.5 52 6.9 NNE 13 17 7 9 1012.9 1012.0 0.0
23/08:30pm 28.2 28.4 17.7 53 6.7 NNE 13 15 7 8 - - 0.0
23/08:00pm 28.3 29.1 17.2 51 7.0 NNE 9 13 5 7 - - 0.0
23/07:30pm 28.7 29.0 16.9 48 7.4 NNE 11 13 6 7 - - 0.0
23/07:00pm 30.0 30.2 16.8 45 8.4 NNE 11 15 6 8 - - 0.0
23/06:30pm 30.3 30.5 16.7 44 8.6 NNE 11 17 6 9 - - 0.0
23/06:00pm 31.4 31.5 16.6 41 9.4 NNE 11 19 6 10 - - 0.0
23/05:30pm 31.5 31.8 17.0 41 9.2 N 11 19 6 10 - - 0.0
23/05:00pm 31.7 31.9 17.6 43 9.1 NNE 13 20 7 11 - - 0.0
23/04:30pm 31.7 31.9 16.8 40 9.5 NNE 11 20 6 11 - - 0.0
23/04:00pm 31.7 31.6 18.7 46 8.5 NNE 17 22 9 12 - - 0.0
23/03:30pm 31.6 33.0 18.6 46 8.5 N 9 19 5 10 - - 0.0
23/03:00pm 31.0 31.1 18.4 47 8.2 N 15 24 8 13 - - 0.0
23/02:30pm 31.2 31.5 17.9 45 8.6 N 13 24 7 13 - - 0.0
23/02:00pm 30.6 31.5 18.3 47 8.0 NNE 11 22 6 12 - - 0.0
23/01:30pm 30.2 30.4 19.3 52 7.2 NNE 17 26 9 14 - - 0.0
23/01:00pm 30.0 30.8 19.1 52 7.1 N 13 24 7 13 - - 0.0
23/12:30pm 29.2 29.2 18.9 53 6.7 N 17 33 9 18 - - 0.0
23/12:00pm 28.7 28.6 19.6 58 6.0 NNE 19 26 10 14 1016.3 1015.5 0.0
23/11:30am 28.1 28.3 19.3 58 5.7 N 17 24 9 13 1016.4 1015.6 0.0
23/11:00am 27.6 27.7 19.9 63 5.1 N 19 26 10 14 1016.5 1015.7 0.0
23/10:30am 27.0 27.3 19.6 64 4.8 N 17 24 9 13 1016.4 1015.6 0.0
23/10:00am 26.3 26.4 19.9 68 4.2 N 19 26 10 14 1016.3 1015.5 0.0
23/09:30am 25.2 25.3 20.0 73 3.4 NNE 19 26 10 14 1016.1 1015.3 0.0
23/09:00am 24.3 25.1 20.6 80 2.4 NNE 17 24 9 13 1016.1 1015.3 0.0
23/08:30am 22.7 24.0 20.8 89 1.2 NE 15 22 8 12 1015.9 1015.1 0.0
23/08:00am 21.2 22.8 20.7 97 0.3 NE 13 15 7 8 1015.6 1014.8 0.0
23/07:30am 21.1 22.6 20.6 97 0.3 NE 13 17 7 9 1015.2 1014.3 0.0
23/07:00am 21.1 23.0 20.6 97 0.3 ENE 11 15 6 8 1015.1 1014.2 0.0
23/06:30am 21.5 23.1 20.7 95 0.5 ENE 13 17 7 9 1014.8 1013.9 0.0
23/06:00am 21.8 23.1 20.8 94 0.7 ENE 15 19 8 10 1014.7 1013.8 0.0
23/05:30am 21.8 23.2 21.0 95 0.5 ENE 15 22 8 12 1014.4 1013.5 0.0
23/05:00am 21.3 22.2 20.8 97 0.3 ENE 17 24 9 13 1014.0 1013.1 0.0
23/04:30am 21.6 22.6 21.1 97 0.3 ENE 17 22 9 12 1013.7 1012.8 0.0
23/04:00am 21.7 22.8 21.2 97 0.3 E 17 22 9 12 1013.7 1012.8 0.0
23/03:30am 21.9 22.4 20.9 94 0.7 E 19 24 10 13 1013.8 1012.9 0.0
23/03:00am 22.5 23.1 21.0 91 1.0 E 19 24 10 13 1013.8 1012.9 0.0
23/02:30am 22.3 23.5 19.8 86 1.6 E 13 17 7 9 1014.1 1013.2 0.0
23/02:00am 23.1 23.5 19.9 82 2.1 ESE 17 20 9 11 1014.3 1013.4 0.0
23/01:30am 23.7 24.1 21.0 85 1.8 ESE 20 30 11 16 1014.4 1013.5 0.0
23/01:00am 24.0 24.9 21.5 86 1.7 SSE 19 28 10 15 1014.4 1013.5 0.0
23/12:30am 24.0 25.5 21.3 85 1.8 ENE 15 20 8 11 1014.1 1013.2 0.0
23/12:00am 23.2 25.4 21.1 88 1.4 E 11 13 6 7 1014.1 1013.2 0.0
 
Date/Time
EDT
Temp
°C
App
Temp
°C
Dew
Point
°C
Rel
Hum
%
Delta-T
°C
Wind Press
QNH
hPa
Press
MSL
hPa
Rain since
9am
mm
Dir  Spd
km/h
Gust
km/h
Spd
kts
Gust
kts
22/11:30pm 23.7 25.4 21.0 85 1.8 E 13 15 7 8 1014.1 1013.2 0.0
22/11:00pm 23.8 25.7 20.5 82 2.2 E 11 13 6 7 1014.1 1013.2 0.0
22/10:30pm 24.2 25.4 19.9 77 2.8 E 13 17 7 9 1013.9 1013.0 0.0
22/10:00pm 25.4 26.4 19.5 70 3.8 NE 13 17 7 9 1013.6 1012.7 0.0
22/09:30pm 25.9 26.7 19.1 66 4.4 NE 13 17 7 9 1013.4 1012.5 0.0
22/09:00pm 26.0 26.8 18.2 62 5.0 NE 11 15 6 8 1013.2 1012.3 0.0
22/08:30pm 27.2 27.6 18.2 58 5.8 NNE 13 17 7 9 1012.7 1011.8 0.0
22/08:00pm 27.4 28.2 18.1 57 5.9 NNE 11 13 6 7 1012.2 1011.3 0.0
22/07:30pm 28.3 29.1 18.1 54 6.5 NNE 11 15 6 8 1011.9 1011.0 0.0
22/07:00pm 29.4 29.6 17.6 49 7.5 N 13 19 7 10 1011.3 1010.5 0.0
22/06:30pm 30.2 29.7 16.9 44 8.4 N 15 22 8 12 1010.9 1010.1 0.0
22/06:00pm 30.8 29.9 16.8 43 8.9 N 17 28 9 15 1010.7 1009.9 0.0
22/05:30pm 31.8 31.4 16.1 38 9.9 N 13 19 7 10 1010.7 1009.9 0.0
22/05:00pm 32.1 30.6 16.8 40 9.8 NNW 20 30 11 16 1011.0 1010.2 0.0
22/04:30pm 31.4 30.0 16.9 41 9.2 N 20 30 11 16 1011.1 1010.3 0.0
22/04:00pm 32.3 31.6 17.4 41 9.6 NNW 17 33 9 18 1011.5 1010.7 0.0
22/03:30pm 31.8 31.1 18.7 45 8.6 NNW 20 28 11 15 1011.8 1010.9 0.0
22/03:00pm 31.5 30.6 18.1 44 8.7 NNW 20 32 11 17 1012.2 1011.3 0.0
22/02:30pm 31.2 29.8 17.1 42 9.0 NNW 20 33 11 18 1012.6 1011.7 0.0
22/02:00pm 30.0 27.9 17.1 46 8.2 NNW 24 30 13 16 1013.1 1012.2 0.0
22/01:30pm 30.3 28.7 17.4 46 8.2 NNW 22 35 12 19 1013.5 1012.6 0.0
22/01:00pm 30.1 27.8 17.5 46 8.1 NNW 26 44 14 24 1013.8 1012.9 0.0
22/12:30pm 30.3 29.2 18.7 50 7.5 NNW 22 33 12 18 1014.2 1013.3 0.0
22/12:00pm 29.0 27.7 19.0 54 6.5 NNW 24 35 13 19 1014.6 1013.7 0.0
22/11:30am 27.3 27.2 19.6 62 5.0 N 19 28 10 15 1015.2 1014.3 0.0
22/11:00am 27.0 26.9 19.9 65 4.7 N 20 24 11 13 1015.4 1014.6 0.0
22/10:30am 26.2 26.8 20.3 70 3.9 N 17 28 9 15 1015.5 1014.7 0.0
22/10:00am 26.1 27.1 21.1 74 3.3 NNE 17 24 9 13 1015.5 1014.7 0.0
22/09:30am 25.5 25.8 20.5 74 3.3 NNE 19 24 10 13 1015.4 1014.6 0.0
22/09:00am 24.3 24.7 20.6 80 2.4 NNE 19 26 10 14 1015.2 1014.3 0.4
22/08:30am 22.8 23.8 21.1 90 1.1 NE 17 24 9 13 1014.9 1014.0 0.4
22/08:00am 22.0 23.8 21.2 95 0.5 NE 13 17 7 9 1014.4 1013.5 0.4
22/07:30am 22.1 23.4 20.9 93 0.8 NE 15 20 8 11 1014.0 1013.1 0.4
22/07:00am 22.3 23.6 20.9 92 0.9 NNE 15 20 8 11 1013.7 1012.8 0.4
22/06:30am 22.6 23.8 20.7 89 1.2 NE 15 20 8 11 1013.4 1012.5 0.4
22/06:00am 23.1 23.9 20.6 86 1.6 NNE 17 24 9 13 1013.2 1012.3 0.4
22/05:30am 23.3 24.1 20.6 85 1.8 NNE 17 20 9 11 1013.1 1012.2 0.4
22/05:00am 23.6 24.7 20.5 83 2.0 NNE 15 19 8 10 1013.0 1012.1 0.4
22/04:30am 23.8 24.6 20.7 83 2.0 NE 17 24 9 13 1013.0 1012.1 0.4
22/04:00am 24.0 25.0 21.1 84 1.9 NNE 17 22 9 12 1012.9 1012.0 0.4
22/03:30am 24.0 26.0 21.5 86 1.7 NNE 13 17 7 9 1013.2 1012.3 0.4
22/03:00am 23.3 25.8 21.7 91 1.1 NE 11 17 6 9 1013.1 1012.2 0.4
22/02:30am 23.7 26.0 22.0 90 1.1 NE 13 17 7 9 1013.3 1012.4 0.4
22/02:00am 24.0 27.1 22.1 89 1.3 NE 9 13 5 7 1013.7 1012.8 0.4
22/01:30am 24.2 27.0 22.3 89 1.3 ENE 11 15 6 8 1013.9 1013.0 0.4
22/01:00am 24.3 27.0 22.2 88 1.4 ENE 11 15 6 8 1014.0 1013.1 0.4
22/12:30am 25.0 27.7 22.1 84 2.0 E 11 13 6 7 1014.0 1013.1 0.4
22/12:00am 25.3 27.7 22.2 83 2.1 SSW 13 20 7 11 1014.0 1013.1 0.4
 
Date/Time
EDT
Temp
°C
App
Temp
°C
Dew
Point
°C
Rel
Hum
%
Delta-T
°C
Wind Press
QNH
hPa
Press
MSL
hPa
Rain since
9am
mm
Dir  Spd
km/h
Gust
km/h
Spd
kts
Gust
kts
21/11:30pm 25.0 27.0 22.3 85 1.8 NNE 15 19 8 10 1013.8 1012.9 0.4

Other Formats:

Comma delimited format used in spreadsheet applications
http://www.bom.gov.au/fwo/IDN60801/IDN60801.95718.axf

JavaScript Object Notation format (JSON) in row-major order
http://www.bom.gov.au/fwo/IDN60801/IDN60801.95718.json